WMKM/MKZ METAR and TAF weather

Enter ICAO airport designator
Station Type Date Time Source
WMKM METAR 2022/10/01 07:00 UTC NOAA

WMKM 010700Z VRB04KT 9999 SCT020 31/23 Q1008


Station Type Date Time Source
WMKM Decoded METAR 2022/10/01 07:00 UTC NOAA

Malacca, Malaysia (WMKM) 02-16N 102-15E 9M
Oct 01, 2022 - 03:00 AM EDT / 2022.10.01 0700 UTC
Wind: Variable at 5 MPH (4 KT):0
Visibility: greater than 7 mile(s):0
Sky conditions: partly cloudy
Temperature: 87 F (31 C)
Heat index: 93.9 F (34.4 C):1
Dew Point: 73 F (23 C)
Relative Humidity: 62%
Pressure (altimeter): 29.77 in. Hg (1008 hPa)
ob: WMKM 010700Z VRB04KT 9999 SCT020 31/23 Q1008
cycle: 7

Station Type Date Time Source
WMKM TAF 2022/10/01 06:00 UTC NOAA

TAF WMKM 010500Z 0106/0206 VRB02KT 9999 FEW018 PROB30
TEMPO 0108/0112 4000 TSRA FEW017CB
TEMPO 0115/0119 4000 TSRA FEW017CB

Example: see airport list